createdAt,value
2022-12-20T00:01:33.649Z,5.60
2022-12-20T00:04:03.515Z,5.60
2022-12-20T00:06:31.209Z,5.60
2022-12-20T00:09:05.574Z,5.50
2022-12-20T00:11:33.598Z,5.60
2022-12-20T00:14:01.299Z,5.50
2022-12-20T00:16:30.015Z,5.50
2022-12-20T00:18:58.846Z,5.40
2022-12-20T00:21:27.528Z,5.40
2022-12-20T00:23:55.861Z,5.40
2022-12-20T00:26:25.975Z,5.40
2022-12-20T00:28:54.150Z,5.40
2022-12-20T00:31:23.060Z,5.40
2022-12-20T00:33:52.454Z,5.40
2022-12-20T00:36:20.484Z,5.40
2022-12-20T00:38:48.180Z,5.30
2022-12-20T00:41:17.315Z,5.30
2022-12-20T00:43:46.336Z,5.40
2022-12-20T00:46:14.602Z,5.40
2022-12-20T00:48:42.528Z,5.50
2022-12-20T00:51:11.969Z,5.60
2022-12-20T00:53:40.150Z,5.60
2022-12-20T00:56:08.278Z,5.60
2022-12-20T00:58:36.963Z,5.50
2022-12-20T01:01:06.908Z,5.60
2022-12-20T01:03:35.113Z,5.50
2022-12-20T01:06:03.130Z,5.50
2022-12-20T01:08:31.654Z,5.60
2022-12-20T01:11:00.366Z,5.60
2022-12-20T01:13:28.451Z,5.60
2022-12-20T01:15:56.521Z,5.70
2022-12-20T01:18:25.586Z,5.70
2022-12-20T01:21:01.605Z,5.60
2022-12-20T01:23:29.412Z,5.60
2022-12-20T01:25:58.454Z,5.60
2022-12-20T01:28:26.153Z,5.60
2022-12-20T01:30:53.837Z,5.50
2022-12-20T01:33:21.579Z,5.50
2022-12-20T01:36:01.313Z,5.50
2022-12-20T01:38:29.693Z,5.50
2022-12-20T01:40:57.860Z,5.50
2022-12-20T01:43:26.264Z,5.50
2022-12-20T01:45:54.111Z,5.30
2022-12-20T01:48:23.852Z,5.30
2022-12-20T01:50:52.589Z,5.30
2022-12-20T01:53:24.218Z,5.00
2022-12-20T01:55:51.912Z,4.90
2022-12-20T01:58:20.840Z,4.90
2022-12-20T02:00:48.847Z,4.90
2022-12-20T02:03:17.691Z,4.90
2022-12-20T02:05:46.816Z,5.00
2022-12-20T02:08:16.306Z,5.10
2022-12-20T02:10:52.481Z,5.20
2022-12-20T02:13:22.661Z,5.30
2022-12-20T02:15:53.652Z,5.20
2022-12-20T02:18:23.147Z,5.20
2022-12-20T02:21:07.311Z,5.30
2022-12-20T02:23:51.507Z,5.40
2022-12-20T02:26:27.831Z,5.40
2022-12-20T02:29:03.836Z,5.50
2022-12-20T02:31:35.562Z,5.50
2022-12-20T02:34:04.076Z,5.50
2022-12-20T02:36:31.745Z,5.40
2022-12-20T02:38:59.681Z,5.30
2022-12-20T02:41:28.211Z,5.40
2022-12-20T02:44:15.929Z,5.40
2022-12-20T02:46:45.460Z,5.50
2022-12-20T02:49:15.338Z,5.50
2022-12-20T02:51:44.403Z,5.50
2022-12-20T02:54:12.508Z,5.50
2022-12-20T02:56:42.184Z,5.40
2022-12-20T02:59:12.197Z,5.50
2022-12-20T03:01:41.868Z,5.50
2022-12-20T03:04:11.440Z,5.60
2022-12-20T03:06:40.504Z,5.60
2022-12-20T03:09:08.179Z,5.70
2022-12-20T03:11:35.884Z,5.70
2022-12-20T03:14:03.640Z,5.70
2022-12-20T03:16:31.356Z,5.70
2022-12-20T03:18:59.104Z,5.60
2022-12-20T03:21:28.181Z,5.70
2022-12-20T03:23:55.877Z,5.80
2022-12-20T03:26:23.608Z,5.80
2022-12-20T03:28:51.321Z,5.80
2022-12-20T03:31:19.099Z,5.70
2022-12-20T03:33:47.141Z,5.80
2022-12-20T03:36:14.856Z,5.60
2022-12-20T03:38:43.902Z,5.50
2022-12-20T03:41:11.892Z,5.50
2022-12-20T03:43:39.622Z,5.50
2022-12-20T03:46:07.414Z,5.60
2022-12-20T03:48:35.161Z,5.70
2022-12-20T03:51:03.024Z,5.70
2022-12-20T03:53:30.762Z,5.70
2022-12-20T03:55:59.805Z,5.70
2022-12-20T03:58:27.747Z,5.70
2022-12-20T04:00:55.416Z,5.70
2022-12-20T04:03:23.190Z,5.80
2022-12-20T04:05:50.990Z,5.80
2022-12-20T04:08:18.688Z,5.80
2022-12-20T04:11:04.113Z,5.80
2022-12-20T04:13:33.133Z,5.80
2022-12-20T04:16:01.469Z,5.70
2022-12-20T04:18:29.296Z,5.70
2022-12-20T04:20:56.977Z,5.60
2022-12-20T04:23:24.693Z,5.70
2022-12-20T04:25:52.383Z,5.70
2022-12-20T04:28:20.110Z,5.70
2022-12-20T04:30:49.144Z,5.70
2022-12-20T04:33:16.877Z,5.60
2022-12-20T04:35:44.552Z,5.60
2022-12-20T04:38:12.265Z,5.70
2022-12-20T04:40:40.232Z,5.70
2022-12-20T04:43:07.932Z,5.60
2022-12-20T04:45:35.786Z,5.60
2022-12-20T04:48:28.737Z,5.60
2022-12-20T04:50:52.749Z,5.50
2022-12-20T04:53:38.600Z,5.40
2022-12-20T04:56:06.427Z,5.30
2022-12-20T04:58:34.159Z,5.10
2022-12-20T05:01:01.855Z,5.20
2022-12-20T05:03:30.907Z,5.20
2022-12-20T05:05:58.871Z,5.30
2022-12-20T05:08:26.617Z,5.30
2022-12-20T05:10:54.335Z,5.30
2022-12-20T05:13:22.068Z,5.20
2022-12-20T05:15:51.532Z,5.20
2022-12-20T05:18:19.350Z,5.30
2022-12-20T05:20:48.735Z,5.10
2022-12-20T05:23:34.233Z,5.10
2022-12-20T05:26:19.904Z,5.10
2022-12-20T05:28:47.652Z,5.20
2022-12-20T05:31:15.442Z,5.20
2022-12-20T05:33:43.176Z,5.10
2022-12-20T05:36:12.270Z,5.00
2022-12-20T05:38:39.976Z,4.80
2022-12-20T05:41:08.492Z,4.70
2022-12-20T05:43:36.197Z,4.60
2022-12-20T05:46:03.875Z,4.40
2022-12-20T05:48:31.593Z,4.30
2022-12-20T05:51:00.390Z,4.20
2022-12-20T05:53:29.413Z,4.10
2022-12-20T05:55:57.117Z,4.10
2022-12-20T05:58:24.987Z,4.10
2022-12-20T06:00:52.689Z,4.00
2022-12-20T06:03:20.507Z,4.00
2022-12-20T06:05:49.077Z,4.00
2022-12-20T06:08:17.049Z,4.00
2022-12-20T06:10:46.528Z,3.80
2022-12-20T06:13:14.308Z,3.70
2022-12-20T06:15:42.046Z,3.70
2022-12-20T06:18:09.799Z,3.60
2022-12-20T06:20:37.593Z,3.60
2022-12-20T06:23:05.547Z,3.60
2022-12-20T06:25:33.257Z,3.60
2022-12-20T06:28:02.492Z,3.60
2022-12-20T06:30:33.814Z,3.60
2022-12-20T06:33:02.004Z,3.70
2022-12-20T06:35:29.962Z,3.70
2022-12-20T06:37:58.867Z,3.80
2022-12-20T06:40:26.644Z,3.70
2022-12-20T06:42:54.347Z,3.70
2022-12-20T06:45:23.364Z,3.70
2022-12-20T06:47:51.031Z,3.70
2022-12-20T06:50:19.068Z,3.60
2022-12-20T06:52:46.754Z,3.50
2022-12-20T06:55:14.456Z,3.40
2022-12-20T06:57:42.948Z,3.40
2022-12-20T07:00:12.679Z,3.40
2022-12-20T07:02:41.787Z,3.40
2022-12-20T07:05:09.853Z,3.30
2022-12-20T07:07:44.525Z,3.40
2022-12-20T07:10:13.333Z,3.40
2022-12-20T07:12:47.503Z,3.30
2022-12-20T07:15:16.315Z,3.30
2022-12-20T07:17:45.440Z,3.40
2022-12-20T07:20:14.432Z,3.40
2022-12-20T07:22:42.481Z,3.40
2022-12-20T07:25:11.383Z,3.40
2022-12-20T07:27:39.102Z,3.40
2022-12-20T07:30:07.391Z,3.50
2022-12-20T07:32:35.155Z,3.50
2022-12-20T07:35:04.221Z,3.50
2022-12-20T07:37:31.963Z,3.40
2022-12-20T07:39:59.726Z,3.50
2022-12-20T07:42:32.004Z,3.60
2022-12-20T07:45:03.714Z,3.70
2022-12-20T07:47:31.410Z,3.80
2022-12-20T07:49:59.095Z,3.80
2022-12-20T07:52:29.822Z,3.90
2022-12-20T07:54:59.466Z,4.00
2022-12-20T07:57:30.839Z,4.00
2022-12-20T08:00:00.196Z,4.00
2022-12-20T08:02:29.897Z,4.00
2022-12-20T08:04:58.211Z,4.00
2022-12-20T08:07:26.079Z,4.00
2022-12-20T08:09:55.161Z,4.10
2022-12-20T08:12:23.522Z,4.10
2022-12-20T08:14:52.355Z,4.10
2022-12-20T08:17:20.122Z,4.20
2022-12-20T08:19:48.816Z,4.20
2022-12-20T08:22:16.470Z,4.30
2022-12-20T08:24:44.132Z,4.30
2022-12-20T08:27:13.213Z,4.40
2022-12-20T08:29:40.910Z,4.40
2022-12-20T08:32:08.627Z,4.50
2022-12-20T08:34:36.507Z,4.70
2022-12-20T08:37:09.062Z,4.80
2022-12-20T08:39:40.196Z,4.80
2022-12-20T08:42:07.964Z,4.70
2022-12-20T08:44:37.024Z,4.70
2022-12-20T08:47:04.751Z,4.60
2022-12-20T08:49:32.441Z,4.50
2022-12-20T08:52:00.135Z,4.50
2022-12-20T08:54:27.868Z,4.50
2022-12-20T08:56:55.559Z,4.50
2022-12-20T08:59:23.249Z,4.40
2022-12-20T09:01:53.579Z,4.50
2022-12-20T09:04:21.371Z,4.50
2022-12-20T09:06:49.318Z,4.50
2022-12-20T09:09:17.346Z,4.40
2022-12-20T09:11:45.036Z,4.40
2022-12-20T09:14:12.750Z,4.40
2022-12-20T09:16:40.510Z,4.40
2022-12-20T09:19:12.877Z,4.50
2022-12-20T09:21:40.998Z,4.50
2022-12-20T09:24:09.771Z,4.60
2022-12-20T09:26:38.104Z,4.70
2022-12-20T09:29:06.160Z,4.80
2022-12-20T09:31:33.877Z,4.80
2022-12-20T09:34:01.698Z,4.90
2022-12-20T09:36:31.231Z,4.90
2022-12-20T09:38:58.958Z,4.90
2022-12-20T09:41:29.771Z,5.00
2022-12-20T09:43:58.670Z,5.00
2022-12-20T09:46:27.071Z,5.10
2022-12-20T09:48:55.208Z,5.10
2022-12-20T09:51:28.501Z,5.00
2022-12-20T09:54:02.494Z,5.00
2022-12-20T09:56:31.953Z,5.10
2022-12-20T09:59:01.465Z,5.10
2022-12-20T10:01:36.273Z,5.10
2022-12-20T10:04:07.356Z,5.10
2022-12-20T10:06:41.456Z,5.10
2022-12-20T10:09:20.631Z,5.20
2022-12-20T10:11:54.493Z,5.20
2022-12-20T10:14:30.332Z,5.30
2022-12-20T10:17:01.720Z,5.30
2022-12-20T10:19:36.355Z,5.40
2022-12-20T10:22:07.869Z,5.50
2022-12-20T10:24:37.840Z,5.50
2022-12-20T10:27:11.722Z,5.50
2022-12-20T10:29:39.495Z,5.60
2022-12-20T10:32:13.554Z,5.60
2022-12-20T10:34:48.158Z,5.60
2022-12-20T10:37:16.818Z,5.60
2022-12-20T10:39:48.553Z,5.60
2022-12-20T10:42:27.395Z,5.70
2022-12-20T10:44:55.726Z,5.70
2022-12-20T10:47:26.096Z,5.70
2022-12-20T10:50:08.316Z,5.70
2022-12-20T10:52:35.956Z,5.70
2022-12-20T10:55:25.180Z,5.70
2022-12-20T10:57:54.402Z,5.80
2022-12-20T11:00:29.626Z,5.90
2022-12-20T11:03:03.673Z,6.00
2022-12-20T11:05:31.662Z,6.00
2022-12-20T11:10:48.500Z,6.10
2022-12-20T11:13:22.077Z,6.10
2022-12-20T11:15:50.993Z,6.20
2022-12-20T11:18:24.545Z,6.20
2022-12-20T11:20:58.566Z,6.20
2022-12-20T11:23:30.059Z,6.30
2022-12-20T11:26:04.527Z,6.40
2022-12-20T11:28:41.039Z,6.40
2022-12-20T11:31:15.918Z,6.40
2022-12-20T11:33:55.923Z,6.40
2022-12-20T11:36:29.779Z,6.40
2022-12-20T11:38:59.968Z,6.40
2022-12-20T11:41:32.957Z,6.50
2022-12-20T11:47:09.899Z,6.40
2022-12-20T11:49:53.907Z,6.30
2022-12-20T11:52:28.087Z,6.30
2022-12-20T11:54:59.602Z,6.20
2022-12-20T11:57:28.579Z,6.20
2022-12-20T11:59:59.115Z,6.10
2022-12-20T12:02:28.642Z,6.00
2022-12-20T12:04:59.626Z,6.10
2022-12-20T12:07:29.984Z,6.20
2022-12-20T12:09:59.287Z,6.20
2022-12-20T12:12:28.245Z,6.20
2022-12-20T12:15:00.419Z,6.20
2022-12-20T12:17:33.622Z,6.20
2022-12-20T12:20:05.504Z,6.30
2022-12-20T12:22:36.058Z,6.40
2022-12-20T12:25:05.294Z,6.40
2022-12-20T12:27:33.760Z,6.40
2022-12-20T12:30:02.742Z,6.40
2022-12-20T12:32:32.144Z,6.40
2022-12-20T12:35:07.233Z,6.50
2022-12-20T12:37:54.846Z,6.50
2022-12-20T12:40:34.689Z,6.50
2022-12-20T12:43:30.172Z,6.50
2022-12-20T12:46:00.118Z,6.60
2022-12-20T12:48:30.529Z,6.60
2022-12-20T12:50:58.963Z,6.50
2022-12-20T12:53:32.616Z,6.50
2022-12-20T12:56:19.281Z,6.40
2022-12-20T12:59:12.017Z,6.30
2022-12-20T13:01:51.801Z,6.20
2022-12-20T13:04:37.930Z,6.30
2022-12-20T13:07:27.297Z,6.30
2022-12-20T13:09:55.395Z,6.40
2022-12-20T13:12:50.611Z,6.50
2022-12-20T13:15:37.009Z,6.50
2022-12-20T13:18:22.691Z,6.60
2022-12-20T13:21:05.282Z,6.60
2022-12-20T13:23:32.966Z,6.60
2022-12-20T13:26:00.625Z,6.60
2022-12-20T13:28:44.398Z,6.50
2022-12-20T13:31:31.500Z,6.50
2022-12-20T13:34:01.097Z,6.60
2022-12-20T13:36:34.274Z,6.70
2022-12-20T13:39:03.380Z,6.70
2022-12-20T13:41:35.484Z,6.80
2022-12-20T13:44:22.351Z,6.90
2022-12-20T13:46:52.023Z,7.00
2022-12-20T13:49:24.560Z,7.10
2022-12-20T13:52:07.124Z,7.10
2022-12-20T13:54:34.791Z,7.20
2022-12-20T13:57:02.431Z,7.10
2022-12-20T13:59:32.578Z,7.10
2022-12-20T14:02:00.815Z,7.20
2022-12-20T14:04:39.881Z,7.20
2022-12-20T14:07:07.781Z,7.20
2022-12-20T14:09:36.585Z,7.20
2022-12-20T14:12:06.062Z,7.20
2022-12-20T14:14:37.949Z,7.20
2022-12-20T14:17:18.761Z,7.20
2022-12-20T14:19:48.105Z,7.10
2022-12-20T14:22:15.779Z,7.10
2022-12-20T14:24:44.509Z,7.00
2022-12-20T14:27:13.728Z,7.00
2022-12-20T14:29:41.643Z,7.00
2022-12-20T14:32:18.382Z,6.90
2022-12-20T14:34:47.390Z,6.80
2022-12-20T14:37:26.922Z,6.60
2022-12-20T14:39:55.650Z,6.60
2022-12-20T14:42:23.512Z,6.60
2022-12-20T14:44:51.231Z,6.50
2022-12-20T14:47:20.607Z,6.50
2022-12-20T14:49:49.384Z,6.50
2022-12-20T14:52:18.761Z,6.40
2022-12-20T14:57:40.853Z,6.30
2022-12-20T15:00:13.429Z,6.30
2022-12-20T15:02:42.272Z,6.30
2022-12-20T15:05:30.890Z,6.20
2022-12-20T15:08:10.912Z,6.20
2022-12-20T15:10:42.093Z,6.20
2022-12-20T15:13:14.299Z,6.10
2022-12-20T15:15:42.506Z,6.10
2022-12-20T15:18:12.333Z,6.10
2022-12-20T15:20:40.829Z,6.00
2022-12-20T15:23:13.620Z,5.90
2022-12-20T15:25:43.709Z,5.90
2022-12-20T15:28:15.955Z,5.90
2022-12-20T15:30:43.753Z,5.80
2022-12-20T15:33:16.063Z,5.80
2022-12-20T15:35:44.099Z,5.80
2022-12-20T15:38:14.570Z,5.80
2022-12-20T15:40:46.523Z,5.80
2022-12-20T15:43:14.794Z,5.90
2022-12-20T15:45:43.205Z,5.90
2022-12-20T15:48:14.649Z,5.90
2022-12-20T15:50:43.419Z,5.90
2022-12-20T15:53:14.558Z,6.00
2022-12-20T15:55:42.399Z,6.00
2022-12-20T15:58:11.500Z,6.00
2022-12-20T16:00:40.552Z,6.00
2022-12-20T16:03:13.847Z,6.00
2022-12-20T16:05:41.768Z,6.00
2022-12-20T16:08:09.470Z,6.00
2022-12-20T16:10:37.177Z,6.00
2022-12-20T16:13:05.559Z,6.00
2022-12-20T16:15:34.697Z,5.90
2022-12-20T16:18:02.418Z,5.90
2022-12-20T16:20:30.412Z,5.90
2022-12-20T16:22:58.122Z,5.90
2022-12-20T16:25:27.695Z,5.80
2022-12-20T16:27:55.778Z,5.80
2022-12-20T16:30:23.985Z,5.80
2022-12-20T16:32:53.065Z,5.80
2022-12-20T16:35:24.866Z,5.80
2022-12-20T16:37:52.495Z,5.90
2022-12-20T16:40:20.194Z,5.90
2022-12-20T16:42:47.862Z,5.90
2022-12-20T16:45:18.573Z,5.90
2022-12-20T16:47:46.435Z,5.90
2022-12-20T16:50:15.917Z,5.90
2022-12-20T16:52:43.826Z,5.90
2022-12-20T16:55:14.738Z,5.90
2022-12-20T16:57:42.492Z,5.90
2022-12-20T17:00:16.399Z,5.90
2022-12-20T17:02:44.653Z,5.80
2022-12-20T17:05:21.448Z,5.90
2022-12-20T17:07:49.207Z,5.80
2022-12-20T17:10:17.207Z,5.80
2022-12-20T17:12:45.309Z,5.80
2022-12-20T17:15:18.000Z,5.70
2022-12-20T17:17:45.783Z,5.70
2022-12-20T17:20:14.445Z,5.70
2022-12-20T17:22:43.569Z,5.50
2022-12-20T17:25:19.249Z,5.50
2022-12-20T17:27:47.412Z,5.50
2022-12-20T17:30:15.470Z,5.50
2022-12-20T17:32:43.144Z,5.60
2022-12-20T17:35:21.752Z,5.60
2022-12-20T17:37:52.219Z,5.60
2022-12-20T17:40:20.007Z,5.60
2022-12-20T17:42:47.676Z,5.60
2022-12-20T17:45:26.369Z,5.70
2022-12-20T17:47:54.907Z,5.70
2022-12-20T17:50:24.286Z,5.80
2022-12-20T17:52:54.332Z,5.70
2022-12-20T17:55:23.557Z,5.70
2022-12-20T17:57:51.303Z,5.80
2022-12-20T18:00:21.315Z,5.80
2022-12-20T18:02:49.110Z,5.80
2022-12-20T18:05:17.058Z,5.80
2022-12-20T18:07:44.828Z,5.80
2022-12-20T18:10:13.879Z,5.90
2022-12-20T18:12:41.579Z,5.90
2022-12-20T18:15:10.175Z,5.90
2022-12-20T18:17:38.310Z,5.90
2022-12-20T18:20:06.788Z,5.90
2022-12-20T18:22:35.113Z,5.90
2022-12-20T18:25:06.880Z,5.90
2022-12-20T18:27:38.426Z,6.00
2022-12-20T18:30:06.785Z,6.00
2022-12-20T18:32:34.452Z,6.00
2022-12-20T18:35:02.221Z,6.00
2022-12-20T18:37:30.034Z,6.00
2022-12-20T18:39:57.755Z,6.10
2022-12-20T18:42:25.643Z,6.10
2022-12-20T18:44:54.663Z,6.10
2022-12-20T18:47:22.315Z,6.10
2022-12-20T18:49:50.061Z,6.10
2022-12-20T18:52:17.724Z,6.10
2022-12-20T18:54:45.368Z,6.10
2022-12-20T18:57:13.057Z,6.10
2022-12-20T18:59:40.725Z,6.20
2022-12-20T19:02:10.579Z,6.20
2022-12-20T19:04:38.347Z,6.10
2022-12-20T19:07:06.020Z,6.10
2022-12-20T19:09:33.907Z,6.10
2022-12-20T19:12:01.602Z,6.10
2022-12-20T19:14:29.272Z,6.20
2022-12-20T19:16:57.038Z,6.20
2022-12-20T19:19:26.459Z,6.20
2022-12-20T19:21:54.412Z,6.20
2022-12-20T19:24:22.241Z,6.20
2022-12-20T19:26:50.143Z,6.20
2022-12-20T19:29:17.860Z,6.20
2022-12-20T19:31:45.559Z,6.20
2022-12-20T19:34:13.630Z,6.20
2022-12-20T19:36:43.669Z,6.20
2022-12-20T19:39:13.613Z,6.20
2022-12-20T19:41:41.261Z,6.20
2022-12-20T19:44:09.423Z,6.20
2022-12-20T19:46:37.182Z,6.20
2022-12-20T19:49:05.137Z,6.20
2022-12-20T19:51:32.989Z,6.30
2022-12-20T19:54:01.997Z,6.30
2022-12-20T19:56:31.433Z,6.30
2022-12-20T19:58:59.115Z,6.40
2022-12-20T20:01:27.600Z,6.40
2022-12-20T20:03:56.336Z,6.40
2022-12-20T20:06:24.517Z,6.40
2022-12-20T20:08:52.373Z,6.40
2022-12-20T20:11:21.462Z,6.40
2022-12-20T20:13:49.147Z,6.40
2022-12-20T20:16:21.950Z,6.40
2022-12-20T20:18:50.574Z,6.40
2022-12-20T20:21:21.118Z,6.50
2022-12-20T20:23:49.276Z,6.50
2022-12-20T20:26:18.148Z,6.40
2022-12-20T20:28:47.192Z,6.50
2022-12-20T20:31:16.115Z,6.40
2022-12-20T20:33:44.152Z,6.50
2022-12-20T20:36:13.843Z,6.50
2022-12-20T20:38:41.475Z,6.40
2022-12-20T20:41:09.143Z,6.40
2022-12-20T20:43:38.096Z,6.40
2022-12-20T20:46:08.637Z,6.40
2022-12-20T20:48:36.378Z,6.40
2022-12-20T20:51:04.504Z,6.50
2022-12-20T20:53:34.209Z,6.50
2022-12-20T20:56:02.605Z,6.40
2022-12-20T20:58:30.289Z,6.40
2022-12-20T21:00:58.770Z,6.40
2022-12-20T21:03:28.115Z,6.40
2022-12-20T21:08:43.923Z,6.40
2022-12-20T21:11:12.156Z,6.40
2022-12-20T21:13:39.990Z,6.40
2022-12-20T21:16:08.483Z,6.40
2022-12-20T21:18:37.628Z,6.40
2022-12-20T21:21:08.639Z,6.40
2022-12-20T21:23:36.353Z,6.50
2022-12-20T21:26:04.420Z,6.70
2022-12-20T21:28:32.482Z,6.90
2022-12-20T21:31:00.683Z,7.00
2022-12-20T21:33:28.454Z,7.10
2022-12-20T21:36:00.865Z,7.00
2022-12-20T21:38:28.753Z,6.90
2022-12-20T21:41:00.179Z,6.90
2022-12-20T21:43:27.900Z,6.80
2022-12-20T21:45:55.985Z,6.70
2022-12-20T21:48:23.935Z,6.50
2022-12-20T21:51:02.561Z,6.40
2022-12-20T21:53:30.598Z,6.40
2022-12-20T21:55:59.234Z,6.40
2022-12-20T21:58:27.799Z,6.50
2022-12-20T22:00:56.048Z,6.70
2022-12-20T22:03:24.472Z,6.60
2022-12-20T22:05:53.002Z,6.80
2022-12-20T22:08:22.364Z,6.70
2022-12-20T22:10:50.641Z,6.80
2022-12-20T22:13:18.319Z,7.00
2022-12-20T22:15:45.967Z,7.10
2022-12-20T22:18:13.628Z,7.20
2022-12-20T22:20:44.663Z,7.30
2022-12-20T22:23:12.321Z,7.50
2022-12-20T22:25:41.348Z,7.60
2022-12-20T22:28:09.378Z,7.80
2022-12-20T22:30:40.583Z,7.90
2022-12-20T22:33:08.394Z,7.90
2022-12-20T22:35:36.271Z,8.00
2022-12-20T22:38:04.217Z,8.10
2022-12-20T22:40:32.051Z,8.10
2022-12-20T22:43:01.042Z,8.10
2022-12-20T22:45:28.721Z,8.20
2022-12-20T22:47:56.451Z,8.20
2022-12-20T22:50:24.358Z,8.00
2022-12-20T22:52:52.234Z,8.10
2022-12-20T22:55:19.871Z,8.10
2022-12-20T22:57:47.856Z,7.90
2022-12-20T23:00:17.283Z,7.70
2022-12-20T23:02:46.458Z,7.50
2022-12-20T23:05:14.383Z,7.40
2022-12-20T23:07:42.064Z,7.30
2022-12-20T23:10:30.389Z,7.30
2022-12-20T23:13:15.639Z,7.20
2022-12-20T23:15:43.344Z,7.10
2022-12-20T23:18:12.324Z,7.10
2022-12-20T23:20:57.697Z,7.20
2022-12-20T23:23:25.368Z,7.40
2022-12-20T23:25:53.021Z,7.50
2022-12-20T23:28:20.662Z,7.70
2022-12-20T23:30:48.304Z,7.70
2022-12-20T23:33:17.367Z,7.70
2022-12-20T23:35:45.313Z,7.80
2022-12-20T23:38:12.941Z,7.80
2022-12-20T23:40:40.959Z,7.80
2022-12-20T23:43:08.755Z,7.80
2022-12-20T23:45:36.475Z,7.80
2022-12-20T23:48:04.332Z,7.90
2022-12-20T23:50:33.760Z,7.80
2022-12-20T23:53:01.475Z,7.90
2022-12-20T23:55:29.140Z,7.70
2022-12-20T23:57:56.820Z,7.80
